Time;durP1;ratioP1;P1;durP2;ratioP2;P2;SDS_P1;SDS_P2;PMS_P1;PMS_P2;Temp;Humidity;BMP_temperature;BMP_pressure;BME280_temperature;BME280_humidity;BME280_pressure;Samples;Min_cycle;Max_cycle;Signal;HPM_P1;HPM_P2
2023/01/03 00:00:09;;;;;;;3.60;1.67;;;6.50;92.70;;;;;;5117339;28;20039;-73
2023/01/03 00:02:35;;;;;;;2.78;1.25;;;6.50;92.70;;;;;;5117164;28;20478;-73
2023/01/03 00:05:01;;;;;;;3.03;1.30;;;6.50;92.70;;;;;;5100021;28;20035;-74
2023/01/03 00:07:34;;;;;;;2.67;1.45;;;6.40;92.70;;;;;;5116976;28;20046;-73
2023/01/03 00:10:01;;;;;;;1.85;1.25;;;6.40;92.80;;;;;;5116879;28;20059;-73
2023/01/03 00:12:28;;;;;;;3.33;1.55;;;6.40;92.80;;;;;;5135633;28;20074;-73
2023/01/03 00:14:54;;;;;;;1.65;1.10;;;6.40;92.80;;;;;;5117427;28;20047;-73
2023/01/03 00:17:20;;;;;;;2.05;1.20;;;6.40;92.90;;;;;;5135322;28;20494;-73
2023/01/03 00:19:46;;;;;;;2.65;1.30;;;6.40;92.80;;;;;;5135408;28;20035;-73
2023/01/03 00:22:13;;;;;;;1.90;1.20;;;6.40;92.80;;;;;;5135462;28;20038;-73
2023/01/03 00:24:39;;;;;;;2.47;1.55;;;6.30;92.90;;;;;;5135198;28;20131;-73
2023/01/03 00:27:05;;;;;;;3.53;1.65;;;6.40;92.90;;;;;;5135444;28;20077;-73
2023/01/03 00:29:31;;;;;;;2.28;1.40;;;6.40;92.80;;;;;;5135288;27;20051;-73
2023/01/03 00:31:56;;;;;;;2.70;1.38;;;6.40;92.80;;;;;;5135442;28;20467;-73
2023/01/03 00:34:22;;;;;;;1.88;1.17;;;6.40;92.80;;;;;;5116561;28;20047;-73
2023/01/03 00:36:48;;;;;;;2.03;1.27;;;6.40;92.80;;;;;;5116546;28;20047;-73
2023/01/03 00:39:13;;;;;;;2.17;1.00;;;6.40;92.80;;;;;;5116366;28;20039;-74
2023/01/03 00:41:39;;;;;;;2.72;1.35;;;6.40;92.80;;;;;;5135395;28;20126;-73
2023/01/03 00:44:05;;;;;;;1.95;1.20;;;6.30;92.80;;;;;;5116557;28;20538;-73
2023/01/03 00:46:31;;;;;;;1.52;1.20;;;6.30;92.80;;;;;;5116647;28;20043;-73
2023/01/03 00:48:57;;;;;;;1.70;1.10;;;6.20;92.80;;;;;;5135388;28;20122;-74
2023/01/03 00:51:27;;;;;;;1.13;1.00;;;6.20;92.80;;;;;;5135487;28;20126;-73
2023/01/03 00:53:55;;;;;;;1.98;0.88;;;6.30;92.90;;;;;;5135475;28;20073;-73
2023/01/03 00:56:23;;;;;;;2.25;1.25;;;6.20;92.90;;;;;;5116418;28;20035;-74
2023/01/03 00:58:50;;;;;;;1.38;0.90;;;6.10;93.00;;;;;;5134885;28;20031;-73
2023/01/03 01:01:20;;;;;;;1.63;1.08;;;6.10;93.00;;;;;;5116132;28;20501;-74
2023/01/03 01:03:49;;;;;;;1.10;0.90;;;6.00;93.00;;;;;;5116944;28;20523;-73
2023/01/03 01:06:21;;;;;;;3.40;1.10;;;6.10;93.10;;;;;;5134377;28;20035;-74
2023/01/03 01:08:48;;;;;;;1.73;1.17;;;6.00;93.00;;;;;;5116034;28;20043;-73
2023/01/03 01:11:14;;;;;;;1.52;0.98;;;6.00;93.00;;;;;;5099044;28;20035;-73
2023/01/03 01:13:42;;;;;;;2.05;1.20;;;6.00;93.00;;;;;;5134328;28;20164;-73
2023/01/03 01:16:12;;;;;;;1.55;1.05;;;6.00;93.10;;;;;;5115940;28;20031;-73
2023/01/03 01:18:38;;;;;;;1.77;1.02;;;6.00;93.10;;;;;;5134285;28;20034;-73
2023/01/03 01:21:06;;;;;;;1.73;1.10;;;6.00;93.10;;;;;;5134085;28;20047;-73
2023/01/03 01:23:34;;;;;;;2.90;1.33;;;6.10;93.00;;;;;;5134062;28;20062;-74
2023/01/03 01:26:01;;;;;;;1.80;1.02;;;6.10;93.00;;;;;;5134699;28;20039;-73
2023/01/03 01:28:27;;;;;;;2.38;1.30;;;6.10;92.90;;;;;;5115892;28;20112;-73
2023/01/03 01:30:53;;;;;;;2.28;1.25;;;6.10;92.90;;;;;;5098609;28;20047;-73
2023/01/03 01:33:18;;;;;;;1.98;1.05;;;6.10;92.90;;;;;;5133776;28;20035;-73
2023/01/03 01:35:44;;;;;;;1.85;0.98;;;6.10;92.80;;;;;;5133733;28;20069;-73
2023/01/03 01:38:09;;;;;;;1.38;1.00;;;6.10;92.80;;;;;;5133728;28;20126;-73
2023/01/03 01:40:35;;;;;;;1.75;1.08;;;6.10;92.80;;;;;;5133692;28;20478;-73
2023/01/03 01:46:28;;;;;;;1.63;0.98;;;6.00;92.90;;;;;;5133549;28;20031;-73
2023/01/03 01:49:00;;;;;;;1.15;0.93;;;6.00;92.90;;;;;;5115780;28;20039;-73
2023/01/03 01:51:29;;;;;;;2.05;1.10;;;5.90;92.90;;;;;;5134218;28;20035;-73
2023/01/03 01:53:58;;;;;;;1.23;1.00;;;5.90;92.90;;;;;;5133549;28;20482;-73
2023/01/03 01:56:32;;;;;;;2.40;1.10;;;5.80;92.90;;;;;;5115795;28;20047;-73
2023/01/03 01:58:58;;;;;;;2.20;1.20;;;5.80;93.00;;;;;;5116185;28;20379;-73
2023/01/03 02:01:24;;;;;;;1.50;1.00;;;5.80;93.00;;;;;;5134160;28;20111;-73
2023/01/03 02:04:03;;;;;;;0.93;0.63;;;5.70;93.00;;;;;;5115075;28;20069;-74
2023/01/03 02:06:31;;;;;;;1.67;1.10;;;5.60;93.00;;;;;;5133455;28;20069;-73
2023/01/03 02:08:57;;;;;;;1.67;1.20;;;5.60;93.10;;;;;;5133985;28;20046;-73
2023/01/03 02:11:39;;;;;;;1.13;0.80;;;5.50;93.10;;;;;;5133376;28;20494;-73
2023/01/03 02:14:35;;;;;;;2.22;1.48;;;5.50;93.10;;;;;;5115139;28;20050;-73
2023/01/03 02:17:22;;;;;;;1.83;1.15;;;5.40;93.10;;;;;;5133369;28;20088;-74
2023/01/03 02:20:15;;;;;;;2.60;1.40;;;5.40;93.20;;;;;;5132893;28;20046;-73
2023/01/03 02:23:11;;;;;;;1.05;0.90;;;5.40;93.30;;;;;;5133566;28;20692;-73
2023/01/03 02:26:04;;;;;;;1.70;1.23;;;5.40;93.20;;;;;;5133024;28;20031;-74
2023/01/03 02:29:07;;;;;;;2.05;1.20;;;5.50;93.20;;;;;;5132934;28;20039;-73
2023/01/03 02:31:53;;;;;;;1.48;1.08;;;5.50;93.20;;;;;;5120592;28;20087;-73
2023/01/03 02:34:36;;;;;;;2.38;1.42;;;5.50;93.10;;;;;;5114502;28;20382;-74
2023/01/03 02:37:12;;;;;;;1.48;1.05;;;5.50;93.10;;;;;;5133212;28;20446;-74
2023/01/03 02:39:56;;;;;;;1.23;0.90;;;5.60;93.00;;;;;;5133142;28;20478;-74
2023/01/03 02:45:19;;;;;;;2.30;1.10;;;5.60;92.90;;;;;;5116309;28;20353;-74
2023/01/03 02:47:55;;;;;;;2.00;1.40;;;5.60;92.90;;;;;;5132666;28;20052;-74
2023/01/03 02:50:25;;;;;;;2.03;1.10;;;5.60;92.80;;;;;;5132689;28;20039;-73
2023/01/03 02:52:55;;;;;;;1.73;1.17;;;5.60;92.80;;;;;;5132607;27;20047;-73
2023/01/03 02:55:24;;;;;;;1.42;1.00;;;5.60;92.80;;;;;;5135632;28;20047;-73
2023/01/03 02:57:57;;;;;;;1.38;1.08;;;5.60;92.90;;;;;;5117973;28;20046;-73
2023/01/03 03:00:27;;;;;;;2.13;1.20;;;5.60;92.90;;;;;;5117741;28;20385;-73
2023/01/03 03:02:58;;;;;;;2.70;1.45;;;5.60;92.90;;;;;;5136432;28;20031;-73
2023/01/03 03:05:28;;;;;;;2.05;1.20;;;5.60;92.90;;;;;;5118322;28;20039;-73
2023/01/03 03:07:54;;;;;;;2.92;1.65;;;5.60;93.20;;;;;;5136389;28;20122;-73
2023/01/03 03:13:23;;;;;;;2.15;1.27;;;5.60;92.90;;;;;;5120707;28;20410;-73
2023/01/03 03:16:01;;;;;;;3.17;1.70;;;5.60;92.90;;;;;;5117719;28;20036;-73
2023/01/03 03:18:45;;;;;;;2.95;1.35;;;5.60;92.90;;;;;;5118460;28;20497;-73
2023/01/03 03:26:50;;;;;;;1.95;1.10;;;5.50;92.90;;;;;;5135899;28;20046;-73
2023/01/03 03:29:18;;;;;;;2.08;1.30;;;5.50;92.90;;;;;;5117946;28;20478;-73
2023/01/03 03:31:48;;;;;;;2.25;1.40;;;5.50;92.90;;;;;;5136185;28;20542;-74
2023/01/03 03:34:23;;;;;;;2.28;1.40;;;5.40;92.90;;;;;;5117225;28;20482;-74
2023/01/03 03:37:09;;;;;;;1.92;1.33;;;5.40;92.90;;;;;;5136167;28;20043;-73
2023/01/03 03:45:28;;;;;;;2.30;1.33;;;5.20;93.00;;;;;;5135512;28;20043;-73
2023/01/03 03:48:13;;;;;;;2.28;1.20;;;5.20;93.10;;;;;;5117079;28;20047;-73
2023/01/03 03:50:46;;;;;;;1.63;1.17;;;5.30;93.10;;;;;;5119249;28;20118;-73
2023/01/03 03:53:13;;;;;;;1.77;0.98;;;5.10;93.10;;;;;;5135610;28;20510;-73
2023/01/03 03:55:45;;;;;;;2.53;1.38;;;5.10;93.10;;;;;;5117044;28;20538;-73
2023/01/03 03:58:13;;;;;;;;;;;4.90;93.10;;;;;;5118078;28;20179;-74
2023/01/03 04:00:42;;;;;;;1.92;1.00;;;5.00;93.10;;;;;;5135242;28;20263;-73
2023/01/03 04:03:09;;;;;;;1.40;1.00;;;5.00;93.10;;;;;;5135782;28;20143;-73
2023/01/03 04:05:40;;;;;;;2.53;1.48;;;4.90;93.10;;;;;;5134634;27;20043;-74
2023/01/03 04:08:06;;;;;;;2.28;1.30;;;4.90;93.20;;;;;;5135346;28;20502;-73
2023/01/03 04:10:32;;;;;;;2.33;1.13;;;4.80;93.20;;;;;;5116699;28;20035;-74
2023/01/03 04:12:57;;;;;;;2.58;1.67;;;4.80;93.20;;;;;;5135198;28;20478;-73
2023/01/03 04:15:23;;;;;;;4.25;1.40;;;4.80;93.20;;;;;;5117069;28;20459;-74
2023/01/03 04:17:48;;;;;;;2.45;1.48;;;4.70;93.20;;;;;;5116915;28;20054;-74
2023/01/03 04:20:14;;;;;;;1.88;1.20;;;4.60;93.20;;;;;;5116589;28;20498;-74
2023/01/03 04:22:40;;;;;;;2.22;1.30;;;4.70;93.30;;;;;;5135192;28;20118;-73
2023/01/03 04:25:06;;;;;;;2.40;1.23;;;4.60;93.30;;;;;;5134816;28;20035;-73
2023/01/03 04:27:33;;;;;;;2.63;1.20;;;4.60;93.30;;;;;;5135063;28;20031;-73
2023/01/03 04:29:58;;;;;;;1.60;1.17;;;4.60;93.30;;;;;;5116549;28;20456;-73
2023/01/03 04:32:24;;;;;;;1.52;1.02;;;4.60;93.30;;;;;;5116479;28;20054;-73
2023/01/03 04:34:49;;;;;;;1.92;0.98;;;4.60;93.30;;;;;;5134821;28;20045;-73
2023/01/03 04:37:15;;;;;;;0.88;0.68;;;4.50;93.30;;;;;;5134971;28;20371;-73
2023/01/03 04:39:41;;;;;;;1.75;1.00;;;4.50;93.30;;;;;;5135015;28;20480;-74
2023/01/03 04:44:00;;;;;;;2.25;1.33;;;4.50;93.30;;;;;;5099355;28;20616;-73
2023/01/03 04:44:52;;;;;;;1.33;1.05;;;4.50;93.30;;;;;;5134091;28;20046;-73
2023/01/03 04:47:18;;;;;;;1.15;0.80;;;4.40;93.30;;;;;;5099017;28;20525;-73
2023/01/03 04:49:45;;;;;;;2.63;1.20;;;4.40;93.30;;;;;;5116651;28;20402;-74
2023/01/03 04:52:12;;;;;;;1.33;0.90;;;4.40;93.30;;;;;;5116896;28;20054;-73
2023/01/03 04:54:39;;;;;;;1.25;1.02;;;4.30;93.30;;;;;;5115974;28;20039;-73
2023/01/03 04:57:04;;;;;;;1.85;1.00;;;4.40;93.30;;;;;;5116011;28;20134;-73
2023/01/03 04:59:30;;;;;;;1.30;1.00;;;4.30;93.30;;;;;;5134703;28;20481;-74
2023/01/03 05:01:55;;;;;;;1.65;0.90;;;4.30;93.30;;;;;;5115990;28;20406;-73
2023/01/03 05:04:21;;;;;;;1.00;0.88;;;4.20;93.30;;;;;;5116312;28;20044;-74
2023/01/03 05:06:47;;;;;;;1.88;1.23;;;4.20;93.30;;;;;;5134993;28;20092;-73
2023/01/03 05:09:12;;;;;;;1.98;0.93;;;4.20;93.30;;;;;;5134333;28;20035;-73
2023/01/03 05:11:38;;;;;;;1.73;1.10;;;4.20;93.40;;;;;;5099628;28;20043;-74
2023/01/03 05:14:04;;;;;;;1.77;1.10;;;4.20;93.40;;;;;;5134357;28;20080;-73
2023/01/03 05:16:29;;;;;;;1.25;1.00;;;4.10;93.30;;;;;;5133905;27;20039;-74
2023/01/03 05:18:55;;;;;;;1.23;0.88;;;4.10;93.30;;;;;;5115961;28;20071;-74
2023/01/03 05:26:41;;;;;;;1.30;0.80;;;4.00;93.30;;;;;;5134169;28;20063;-74
2023/01/03 05:29:08;;;;;;;1.23;0.88;;;4.00;93.40;;;;;;5134305;28;20030;-73
2023/01/03 05:31:34;;;;;;;1.25;0.88;;;4.00;93.30;;;;;;5134297;28;20038;-73
2023/01/03 05:34:00;;;;;;;0.70;0.70;;;4.00;93.30;;;;;;5134712;28;20039;-73
2023/01/03 05:36:25;;;;;;;1.83;0.90;;;4.00;93.30;;;;;;5115799;28;20043;-74
2023/01/03 05:38:51;;;;;;;1.20;0.93;;;4.00;93.30;;;;;;5134709;28;20047;-73
2023/01/03 05:41:58;;;;;;;0.70;0.70;;;3.90;93.30;;;;;;5134009;28;20035;-73
2023/01/03 05:44:02;;;;;;;1.25;0.90;;;3.90;93.30;;;;;;5118396;28;20075;-73
2023/01/03 05:46:28;;;;;;;0.98;0.82;;;3.90;93.30;;;;;;5134520;28;20420;-74
2023/01/03 05:48:54;;;;;;;1.33;0.90;;;3.80;93.30;;;;;;5115649;28;20085;-73
2023/01/03 05:51:20;;;;;;;0.95;0.80;;;3.80;93.30;;;;;;5115583;28;20077;-73
2023/01/03 05:53:45;;;;;;;1.10;0.82;;;3.80;93.30;;;;;;5134340;28;20104;-73
2023/01/03 05:56:11;;;;;;;1.42;0.80;;;3.80;93.30;;;;;;5133873;28;20043;-73
2023/01/03 05:58:36;;;;;;;1.67;0.88;;;3.80;93.40;;;;;;5115561;28;20375;-73
2023/01/03 06:01:10;;;;;;;1.70;0.98;;;3.80;93.30;;;;;;5115958;28;20120;-73
2023/01/03 06:03:36;;;;;;;0.82;0.73;;;3.70;93.30;;;;;;5115601;28;20045;-73
2023/01/03 06:06:05;;;;;;;0.57;0.40;;;3.70;93.30;;;;;;5115898;28;20427;-73
2023/01/03 06:08:30;;;;;;;1.90;0.93;;;3.70;93.30;;;;;;5115709;28;20050;-73
2023/01/03 06:10:56;;;;;;;2.13;0.93;;;3.70;93.30;;;;;;5133722;28;20032;-73
2023/01/03 06:13:22;;;;;;;1.80;1.00;;;3.70;93.30;;;;;;5133642;28;20061;-73
2023/01/03 06:17:53;;;;;;;1.52;0.90;;;3.70;93.40;;;;;;5115133;28;20043;-73
2023/01/03 06:18:35;;;;;;;0.73;0.60;;;3.70;93.40;;;;;;5132764;28;20137;-73
2023/01/03 06:21:03;;;;;;;1.13;0.80;;;3.70;93.40;;;;;;5133221;28;20066;-73
2023/01/03 06:23:29;;;;;;;0.80;0.63;;;3.70;93.40;;;;;;5133588;28;20416;-73
2023/01/03 06:25:54;;;;;;;1.48;0.90;;;3.70;93.30;;;;;;5133229;28;20035;-73
2023/01/03 06:28:20;;;;;;;2.15;1.10;;;3.70;93.40;;;;;;5114933;28;20562;-74
2023/01/03 06:30:46;;;;;;;1.13;0.63;;;3.80;93.40;;;;;;5114871;28;20031;-73
2023/01/03 06:33:11;;;;;;;1.10;0.70;;;3.80;93.30;;;;;;5133238;28;20486;-73
2023/01/03 06:35:38;;;;;;;1.35;0.90;;;3.90;93.30;;;;;;5133161;28;20042;-73
2023/01/03 06:38:03;;;;;;;1.55;1.05;;;3.90;93.30;;;;;;5133214;28;20045;-73
2023/01/03 06:40:29;;;;;;;1.38;0.90;;;3.90;93.20;;;;;;5133005;28;20126;-73
2023/01/03 06:42:54;;;;;;;0.85;0.80;;;4.00;93.20;;;;;;5133612;28;20045;-73
2023/01/03 06:53:21;;;;;;;1.48;0.82;;;4.10;93.10;;;;;;5133069;28;20047;-73
2023/01/03 06:55:47;;;;;;;0.95;0.60;;;4.10;93.00;;;;;;5133473;28;20043;-73
2023/01/03 06:58:12;;;;;;;1.25;0.70;;;4.10;93.00;;;;;;5133027;28;20084;-73
2023/01/03 07:00:42;;;;;;;0.88;0.70;;;4.10;93.00;;;;;;5132747;28;20054;-73
2023/01/03 07:03:07;;;;;;;0.80;0.70;;;4.10;93.00;;;;;;5132764;28;20035;-73
2023/01/03 07:05:33;;;;;;;0.50;0.50;;;4.00;93.00;;;;;;5132791;28;20523;-73
2023/01/03 07:07:59;;;;;;;0.80;0.60;;;4.10;93.00;;;;;;5133317;28;20500;-72
2023/01/03 07:10:25;;;;;;;0.85;0.60;;;4.00;93.00;;;;;;5114753;28;20095;-72
2023/01/03 07:15:29;;;;;;;0.82;0.70;;;4.10;93.00;;;;;;5132539;28;20122;-73
2023/01/03 07:17:54;;;;;;;1.05;0.70;;;4.10;93.00;;;;;;5133136;28;20117;-72
2023/01/03 07:20:20;;;;;;;0.60;0.60;;;4.10;93.00;;;;;;5114246;28;20521;-73
2023/01/03 07:22:46;;;;;;;1.13;0.70;;;4.10;93.00;;;;;;5132860;28;20039;-73
2023/01/03 07:25:12;;;;;;;0.68;0.60;;;4.10;93.00;;;;;;5132895;28;20121;-74
2023/01/03 07:27:37;;;;;;;1.38;0.80;;;4.10;93.00;;;;;;5114494;28;20397;-74
2023/01/03 07:30:03;;;;;;;0.63;0.63;;;4.10;93.00;;;;;;5114126;28;20134;-74
2023/01/03 07:32:29;;;;;;;2.10;1.10;;;4.10;93.00;;;;;;5114082;28;20126;-74
2023/01/03 07:34:54;;;;;;;1.25;0.70;;;4.10;93.10;;;;;;5096986;28;20066;-73
2023/01/03 07:37:20;;;;;;;1.35;0.80;;;4.10;93.10;;;;;;5097000;28;20386;-73
2023/01/03 07:39:46;;;;;;;1.05;0.77;;;4.10;93.40;;;;;;5133099;27;20066;-73
2023/01/03 07:44:50;;;;;;;0.80;0.60;;;4.20;93.00;;;;;;5135600;28;20035;-73
2023/01/03 07:47:16;;;;;;;0.57;0.55;;;4.20;93.00;;;;;;5117364;28;20538;-73
2023/01/03 07:49:42;;;;;;;1.15;0.70;;;4.20;93.00;;;;;;5117940;28;20039;-75
2023/01/03 07:52:07;;;;;;;0.77;0.70;;;4.30;92.90;;;;;;5117420;28;20043;-75
2023/01/03 07:54:33;;;;;;;0.90;0.60;;;4.30;92.90;;;;;;5117228;28;20050;-75
2023/01/03 07:56:58;;;;;;;1.30;0.70;;;4.30;92.90;;;;;;5135497;28;20047;-74
2023/01/03 07:59:24;;;;;;;1.52;0.90;;;4.50;92.90;;;;;;5117108;28;20038;-73
2023/01/03 08:01:50;;;;;;;0.80;0.70;;;4.40;92.90;;;;;;5117290;28;20039;-74
2023/01/03 08:04:15;;;;;;;2.85;1.30;;;4.40;92.80;;;;;;5100236;28;20119;-74
2023/01/03 08:06:41;;;;;;;1.10;0.90;;;4.40;92.80;;;;;;5099940;28;20126;-74
2023/01/03 08:14:23;;;;;;;1.08;0.90;;;4.60;92.70;;;;;;5135531;28;20041;-76
2023/01/03 08:16:48;;;;;;;1.45;0.70;;;4.60;92.70;;;;;;5100166;28;20031;-75
2023/01/03 08:19:14;;;;;;;0.95;0.73;;;4.70;92.70;;;;;;5100074;28;20035;-75
2023/01/03 08:21:39;;;;;;;0.93;0.70;;;4.70;92.70;;;;;;5100072;28;20084;-75
2023/01/03 08:24:05;;;;;;;1.63;1.00;;;4.70;92.70;;;;;;5099986;28;20103;-76
2023/01/03 08:26:31;;;;;;;0.90;0.77;;;4.70;92.70;;;;;;5116930;28;20148;-75
2023/01/03 08:28:56;;;;;;;1.30;0.80;;;4.70;92.70;;;;;;5117467;28;20078;-75
2023/01/03 08:31:26;;;;;;;1.25;0.70;;;4.70;92.70;;;;;;5135472;28;20038;-75
2023/01/03 08:33:57;;;;;;;1.10;0.70;;;4.80;92.70;;;;;;5117142;28;20127;-76
2023/01/03 08:36:25;;;;;;;0.82;0.65;;;4.80;92.70;;;;;;5099846;28;20035;-75
2023/01/03 08:38:58;;;;;;;0.73;0.60;;;4.80;92.70;;;;;;5100154;28;20630;-76
2023/01/03 08:41:28;;;;;;;0.57;0.50;;;4.80;92.70;;;;;;5083279;28;20126;-75
2023/01/03 08:43:54;;;;;;;0.65;0.60;;;4.90;92.70;;;;;;5100179;28;20045;-75
2023/01/03 08:46:21;;;;;;;1.10;0.70;;;4.90;92.70;;;;;;5135483;28;20046;-74
2023/01/03 08:48:47;;;;;;;1.50;0.82;;;4.90;92.70;;;;;;5116679;28;20143;-73
2023/01/03 08:51:13;;;;;;;1.92;1.00;;;5.10;92.70;;;;;;5116509;28;20493;-74
2023/01/03 08:53:39;;;;;;;1.33;1.02;;;5.30;92.70;;;;;;5116520;28;20096;-74
2023/01/03 08:56:05;;;;;;;2.20;1.30;;;5.40;92.50;;;;;;5116483;28;20039;-75
2023/01/03 08:58:30;;;;;;;2.03;1.23;;;5.40;92.40;;;;;;5099529;28;20042;-73
2023/01/03 09:01:01;;;;;;;2.97;1.40;;;5.60;92.30;;;;;;5135312;28;20054;-74
2023/01/03 09:03:26;;;;;;;2.97;1.65;;;5.70;92.30;;;;;;5099565;28;20050;-75
2023/01/03 09:05:52;;;;;;;2.30;1.35;;;5.80;92.20;;;;;;5134499;28;20125;-75
2023/01/03 09:08:18;;;;;;;2.42;1.50;;;5.90;92.10;;;;;;5134489;28;20031;-75
2023/01/03 09:10:45;;;;;;;2.65;1.67;;;5.90;92.10;;;;;;5099035;28;20043;-74
2023/01/03 09:13:10;;;;;;;4.40;2.08;;;6.00;92.10;;;;;;5116248;28;20074;-75
2023/01/03 09:15:36;;;;;;;3.10;1.88;;;6.00;92.10;;;;;;5116002;28;20532;-75
2023/01/03 09:18:01;;;;;;;3.47;1.73;;;6.10;92.10;;;;;;5116112;28;20043;-74
2023/01/03 09:20:27;;;;;;;2.90;1.70;;;6.10;92.10;;;;;;5098844;28;20039;-74
2023/01/03 09:22:53;;;;;;;2.45;1.40;;;6.20;92.10;;;;;;5115986;28;20398;-74
2023/01/03 09:25:18;;;;;;;2.53;1.73;;;6.20;92.10;;;;;;5081771;28;20478;-74
2023/01/03 09:27:46;;;;;;;2.53;1.45;;;6.30;92.10;;;;;;5098844;28;20043;-76
2023/01/03 09:30:13;;;;;;;3.55;1.67;;;6.30;92.10;;;;;;5081873;28;20486;-75
2023/01/03 09:32:39;;;;;;;3.15;1.60;;;6.30;92.10;;;;;;5098891;28;20596;-74
2023/01/03 09:35:04;;;;;;;3.53;2.05;;;6.50;92.10;;;;;;5115903;28;20099;-74
2023/01/03 09:37:30;;;;;;;3.00;1.73;;;6.50;92.10;;;;;;5098667;28;20494;-73
2023/01/03 09:39:57;;;;;;;3.58;1.85;;;6.50;92.00;;;;;;5115519;28;20043;-73
2023/01/03 09:45:02;;;;;;;4.85;1.90;;;6.50;92.10;;;;;;5117228;28;20042;-74
2023/01/03 09:47:31;;;;;;;3.92;2.30;;;6.50;92.10;;;;;;5115717;28;20089;-74
2023/01/03 09:49:57;;;;;;;4.53;2.50;;;6.60;92.10;;;;;;5116019;28;20039;-74
2023/01/03 10:03:42;;;;;;;2.83;1.70;;;6.70;92.20;;;;;;5101207;28;20051;-73
2023/01/03 10:06:38;;;;;;;2.85;1.67;;;6.70;92.20;;;;;;5134353;28;20052;-75
2023/01/03 10:09:18;;;;;;;3.65;2.10;;;6.80;92.20;;;;;;5115339;28;20031;-74
2023/01/03 10:12:01;;;;;;;3.85;1.95;;;6.90;92.50;;;;;;5115704;28;20047;-74
2023/01/03 10:14:58;;;;;;;3.78;2.00;;;6.90;92.20;;;;;;5097992;28;20043;-76
2023/01/03 10:17:34;;;;;;;3.22;1.88;;;6.90;92.20;;;;;;5115016;28;20049;-76
2023/01/03 10:20:20;;;;;;;3.92;1.83;;;7.00;92.20;;;;;;5081751;28;20035;-75
2023/01/03 10:22:47;;;;;;;3.67;1.77;;;7.00;92.20;;;;;;5097838;28;20035;-75
2023/01/03 10:25:18;;;;;;;3.05;1.80;;;7.00;92.10;;;;;;5115142;28;20482;-75
2023/01/03 10:27:48;;;;;;;3.47;1.90;;;7.10;92.20;;;;;;5115430;28;20035;-76
2023/01/03 10:30:17;;;;;;;4.32;2.45;;;7.10;92.10;;;;;;5115614;28;20038;-75
2023/01/03 10:33:01;;;;;;;4.78;2.22;;;7.20;92.10;;;;;;5097948;28;20065;-75
2023/01/03 10:35:29;;;;;;;3.83;2.00;;;7.20;92.20;;;;;;5097740;28;20036;-74
2023/01/03 10:37:56;;;;;;;4.82;2.60;;;7.20;92.20;;;;;;5133195;28;20142;-75
2023/01/03 10:40:33;;;;;;;4.20;2.40;;;7.40;92.20;;;;;;5097736;28;20043;-75
2023/01/03 10:43:08;;;;;;;4.68;2.30;;;7.20;92.40;;;;;;5133354;28;20046;-75
2023/01/03 10:45:48;;;;;;;3.13;2.05;;;7.30;92.20;;;;;;5115277;28;20551;-75
2023/01/03 10:48:13;;;;;;;3.70;2.10;;;7.30;92.20;;;;;;5097525;28;20138;-74
2023/01/03 10:50:39;;;;;;;4.03;2.00;;;7.30;92.20;;;;;;5097592;28;20070;-74
2023/01/03 10:53:07;;;;;;;2.97;1.80;;;7.40;92.20;;;;;;5114928;28;20043;-74
2023/01/03 10:55:42;;;;;;;4.38;2.45;;;7.40;92.20;;;;;;5133028;28;20046;-74
2023/01/03 10:58:22;;;;;;;3.72;2.10;;;7.40;92.20;;;;;;5081882;28;20039;-73
2023/01/03 11:00:47;;;;;;;4.75;2.38;;;7.50;92.20;;;;;;5098346;28;20047;-74
2023/01/03 11:03:16;;;;;;;3.72;2.20;;;7.50;92.20;;;;;;5114560;28;20514;-75
2023/01/03 11:05:44;;;;;;;3.80;2.00;;;7.50;92.20;;;;;;5080892;28;20035;-75
2023/01/03 11:08:15;;;;;;;4.30;2.00;;;7.50;92.20;;;;;;5114409;28;20039;-75
2023/01/03 11:10:57;;;;;;;2.50;1.60;;;7.60;92.20;;;;;;5114804;28;20043;-75
2023/01/03 11:13:32;;;;;;;3.33;1.80;;;7.70;92.30;;;;;;5114519;28;20039;-74
2023/01/03 11:16:01;;;;;;;3.63;2.13;;;7.70;92.20;;;;;;5099801;28;20494;-73
2023/01/03 11:18:27;;;;;;;3.58;1.83;;;7.70;92.20;;;;;;5118001;28;20554;-73
2023/01/03 11:21:21;;;;;;;3.72;2.00;;;7.70;92.20;;;;;;5136365;28;20105;-74
2023/01/03 11:24:07;;;;;;;4.10;2.20;;;7.90;92.20;;;;;;5118698;28;20047;-75
2023/01/03 11:26:44;;;;;;;4.25;2.30;;;7.80;92.20;;;;;;5117952;28;20053;-74
2023/01/03 11:29:41;;;;;;;3.65;2.17;;;7.80;92.20;;;;;;5102276;28;20031;-74
2023/01/03 11:32:34;;;;;;;4.13;1.85;;;7.80;92.20;;;;;;5117685;28;20039;-74
2023/01/03 11:35:18;;;;;;;3.78;2.00;;;7.80;92.20;;;;;;5100663;28;20080;-74
2023/01/03 11:38:10;;;;;;;3.35;2.10;;;7.80;92.20;;;;;;5136252;28;20531;-73
2023/01/03 11:40:44;;;;;;;;;;;7.80;92.20;;;;;;5117862;28;20039;-74
2023/01/03 11:43:40;;;;;;;2.80;1.65;;;7.90;92.20;;;;;;5135943;28;19911;-74
2023/01/03 11:46:29;;;;;;;4.10;1.90;;;7.90;92.20;;;;;;5135903;28;20035;-75
2023/01/03 11:49:24;;;;;;;4.28;1.90;;;7.90;92.20;;;;;;5100517;28;20089;-73
2023/01/03 11:52:03;;;;;;;2.92;1.50;;;7.90;92.20;;;;;;5118068;28;20467;-73
2023/01/03 11:54:51;;;;;;;3.45;1.90;;;7.90;92.20;;;;;;5117491;28;20486;-75
2023/01/03 11:57:39;;;;;;;3.25;1.70;;;7.90;92.20;;;;;;5100358;28;20359;-74
2023/01/03 12:00:27;;;;;;;3.10;1.65;;;7.90;92.20;;;;;;5118447;28;20043;-74
2023/01/03 12:03:01;;;;;;;3.03;1.50;;;8.00;92.30;;;;;;5117057;28;20126;-73
2023/01/03 12:05:40;;;;;;;3.00;1.52;;;8.00;92.20;;;;;;5117794;28;20130;-73
2023/01/03 12:08:31;;;;;;;2.78;1.45;;;8.00;92.20;;;;;;5117117;28;20032;-73
2023/01/03 12:11:16;;;;;;;3.60;1.57;;;8.10;92.30;;;;;;5117210;28;20050;-73
2023/01/03 12:14:09;;;;;;;3.85;1.90;;;8.10;92.20;;;;;;5135389;28;20075;-73
2023/01/03 12:16:44;;;;;;;2.97;1.58;;;8.10;92.20;;;;;;5120232;28;20039;-73
2023/01/03 12:19:32;;;;;;;3.28;1.80;;;8.20;92.20;;;;;;5118018;28;20074;-73
2023/01/03 12:22:09;;;;;;;3.35;1.80;;;8.10;92.20;;;;;;5135898;28;20039;-73
2023/01/03 12:24:43;;;;;;;2.85;1.70;;;8.10;92.20;;;;;;5135473;28;20039;-73
2023/01/03 12:27:31;;;;;;;1.80;1.30;;;8.10;92.20;;;;;;5134638;27;20047;-73
2023/01/03 12:30:15;;;;;;;2.05;1.50;;;8.20;92.20;;;;;;5117090;28;20043;-73
2023/01/03 12:32:50;;;;;;;1.75;1.30;;;8.20;92.20;;;;;;5135619;28;20047;-73
2023/01/03 12:35:28;;;;;;;2.67;1.55;;;8.20;92.10;;;;;;5118110;28;20044;-73
2023/01/03 12:37:56;;;;;;;2.33;1.40;;;8.30;92.20;;;;;;5134951;28;20051;-73
2023/01/03 12:40:51;;;;;;;3.25;1.75;;;8.30;92.10;;;;;;5116530;28;20047;-73
2023/01/03 12:43:32;;;;;;;2.95;1.80;;;8.20;92.10;;;;;;5135113;28;20043;-73
2023/01/03 12:46:10;;;;;;;3.42;1.80;;;8.30;92.10;;;;;;5134814;28;20054;-73
2023/01/03 12:48:55;;;;;;;3.25;1.73;;;8.30;92.10;;;;;;5135480;28;20035;-74
2023/01/03 12:51:23;;;;;;;4.65;1.70;;;8.30;92.10;;;;;;5116473;28;20047;-73
2023/01/03 12:54:03;;;;;;;3.10;1.80;;;8.30;92.10;;;;;;5116680;28;20485;-73
2023/01/03 12:57:01;;;;;;;3.22;1.90;;;8.40;92.10;;;;;;5100428;28;20139;-73
2023/01/03 13:00:01;;;;;;;3.05;1.75;;;8.40;92.10;;;;;;5101866;28;20133;-73
2023/01/03 13:03:02;;;;;;;2.40;1.60;;;8.40;92.10;;;;;;5101665;28;20088;-73
2023/01/03 13:05:36;;;;;;;3.30;1.63;;;8.50;92.10;;;;;;5134450;28;20043;-72
2023/01/03 13:08:15;;;;;;;2.40;1.45;;;8.50;92.10;;;;;;5116706;28;20620;-73
2023/01/03 13:10:47;;;;;;;3.20;1.80;;;8.50;92.00;;;;;;5083237;28;20063;-73
2023/01/03 13:13:16;;;;;;;2.67;1.63;;;8.60;92.00;;;;;;5116278;28;20043;-73
2023/01/03 13:15:42;;;;;;;3.03;1.70;;;8.70;92.00;;;;;;5099038;28;20039;-73
2023/01/03 13:18:29;;;;;;;2.92;1.77;;;8.60;91.90;;;;;;5116017;28;20039;-74
2023/01/03 13:20:55;;;;;;;2.65;1.70;;;8.60;92.00;;;;;;5102178;28;20050;-74
2023/01/03 13:23:33;;;;;;;3.30;1.70;;;8.60;91.90;;;;;;5099594;28;20039;-73
2023/01/03 13:26:18;;;;;;;3.63;2.03;;;8.70;91.90;;;;;;5115905;28;20122;-73
2023/01/03 13:28:43;;;;;;;4.03;2.05;;;8.60;91.90;;;;;;5134370;28;20035;-73
2023/01/03 13:31:39;;;;;;;5.25;1.95;;;8.70;91.90;;;;;;5134272;28;20092;-73
2023/01/03 13:34:32;;;;;;;3.22;1.83;;;8.60;91.80;;;;;;5115959;28;20451;-76
2023/01/03 13:37:17;;;;;;;4.25;1.70;;;8.70;91.80;;;;;;5115571;27;20035;-74
2023/01/03 13:39:54;;;;;;;3.08;1.73;;;8.70;91.80;;;;;;5134112;28;20051;-74
2023/01/03 13:42:36;;;;;;;2.20;1.48;;;8.60;91.80;;;;;;5100531;28;20045;-75
2023/01/03 13:45:35;;;;;;;2.47;1.60;;;8.60;91.80;;;;;;5100018;28;20079;-74
2023/01/03 13:48:16;;;;;;;3.13;1.42;;;8.70;91.80;;;;;;5118623;28;20067;-75
2023/01/03 13:51:04;;;;;;;1.58;1.30;;;8.70;91.70;;;;;;5115513;28;20046;-74
2023/01/03 13:53:35;;;;;;;3.38;1.40;;;8.70;91.70;;;;;;5116241;28;20114;-74
2023/01/03 13:56:15;;;;;;;;;;;8.70;91.70;;;;;;5098951;28;20047;-74
2023/01/03 13:58:46;;;;;;;2.20;1.13;;;8.80;91.70;;;;;;5132565;28;19911;-74
2023/01/03 14:01:31;;;;;;;1.50;1.10;;;8.80;91.70;;;;;;5115639;28;20068;-74
2023/01/03 14:04:19;;;;;;;1.60;1.20;;;8.90;91.70;;;;;;5117174;28;20050;-73
2023/01/03 14:07:00;;;;;;;1.80;1.13;;;8.90;91.60;;;;;;5132801;28;20034;-75
2023/01/03 14:09:39;;;;;;;2.08;1.30;;;9.00;91.50;;;;;;5099636;28;20042;-73
2023/01/03 14:12:26;;;;;;;2.03;1.20;;;9.00;91.40;;;;;;5082465;28;20390;-73
2023/01/03 14:14:55;;;;;;;1.67;1.20;;;9.00;91.40;;;;;;5133462;28;20055;-73
2023/01/03 14:17:29;;;;;;;1.77;1.10;;;9.00;91.30;;;;;;5115231;28;20047;-73
2023/01/03 14:20:00;;;;;;;1.67;1.08;;;9.00;91.30;;;;;;5081511;28;20066;-72